sensor_id;sensor_type;location;lat;lon;timestamp;P1;durP1;ratioP1;P2;durP2;ratioP2
11743;SDS011;5929;51.906;7.674;2022-07-09T00:00:21;10.90;;;4.85;;
11743;SDS011;5929;51.906;7.674;2022-07-09T00:02:48;11.77;;;5.72;;
11743;SDS011;5929;51.906;7.674;2022-07-09T00:05:15;11.15;;;4.72;;
11743;SDS011;5929;51.906;7.674;2022-07-09T00:07:42;11.80;;;5.20;;
11743;SDS011;5929;51.906;7.674;2022-07-09T00:10:10;8.02;;;5.07;;
11743;SDS011;5929;51.906;7.674;2022-07-09T00:12:37;11.75;;;5.30;;
11743;SDS011;5929;51.906;7.674;2022-07-09T00:15:04;12.48;;;5.22;;
11743;SDS011;5929;51.906;7.674;2022-07-09T00:17:32;7.05;;;4.95;;
11743;SDS011;5929;51.906;7.674;2022-07-09T00:19:59;12.20;;;4.10;;
11743;SDS011;5929;51.906;7.674;2022-07-09T00:22:27;10.55;;;4.40;;
11743;SDS011;5929;51.906;7.674;2022-07-09T00:24:54;8.98;;;3.92;;
11743;SDS011;5929;51.906;7.674;2022-07-09T00:27:24;7.32;;;3.95;;
11743;SDS011;5929;51.906;7.674;2022-07-09T00:29:51;9.63;;;4.00;;
11743;SDS011;5929;51.906;7.674;2022-07-09T00:32:18;9.82;;;4.93;;
11743;SDS011;5929;51.906;7.674;2022-07-09T00:34:45;11.05;;;4.38;;
11743;SDS011;5929;51.906;7.674;2022-07-09T00:37:12;5.95;;;4.03;;
11743;SDS011;5929;51.906;7.674;2022-07-09T00:39:39;8.70;;;4.65;;
11743;SDS011;5929;51.906;7.674;2022-07-09T00:42:06;9.55;;;4.68;;
11743;SDS011;5929;51.906;7.674;2022-07-09T00:44:35;8.95;;;4.35;;
11743;SDS011;5929;51.906;7.674;2022-07-09T00:47:03;9.82;;;5.53;;
11743;SDS011;5929;51.906;7.674;2022-07-09T00:49:31;8.45;;;5.03;;
11743;SDS011;5929;51.906;7.674;2022-07-09T00:52:01;8.52;;;5.25;;
11743;SDS011;5929;51.906;7.674;2022-07-09T00:54:30;9.23;;;5.95;;
11743;SDS011;5929;51.906;7.674;2022-07-09T00:56:57;10.27;;;5.60;;
11743;SDS011;5929;51.906;7.674;2022-07-09T00:59:25;11.15;;;5.78;;
11743;SDS011;5929;51.906;7.674;2022-07-09T01:01:53;9.75;;;5.75;;
11743;SDS011;5929;51.906;7.674;2022-07-09T01:04:21;11.63;;;6.07;;
11743;SDS011;5929;51.906;7.674;2022-07-09T01:06:48;11.38;;;6.05;;
11743;SDS011;5929;51.906;7.674;2022-07-09T01:09:14;11.90;;;6.55;;
11743;SDS011;5929;51.906;7.674;2022-07-09T01:11:41;13.13;;;6.65;;
11743;SDS011;5929;51.906;7.674;2022-07-09T01:14:08;10.02;;;6.85;;
11743;SDS011;5929;51.906;7.674;2022-07-09T01:16:36;9.95;;;6.35;;
11743;SDS011;5929;51.906;7.674;2022-07-09T01:19:04;8.38;;;6.03;;
11743;SDS011;5929;51.906;7.674;2022-07-09T01:21:34;13.27;;;6.65;;
11743;SDS011;5929;51.906;7.674;2022-07-09T01:24:02;15.13;;;6.80;;
11743;SDS011;5929;51.906;7.674;2022-07-09T01:26:29;9.65;;;6.80;;
11743;SDS011;5929;51.906;7.674;2022-07-09T01:28:56;11.63;;;6.65;;
11743;SDS011;5929;51.906;7.674;2022-07-09T01:31:23;12.25;;;7.30;;
11743;SDS011;5929;51.906;7.674;2022-07-09T01:33:50;11.13;;;6.38;;
11743;SDS011;5929;51.906;7.674;2022-07-09T01:36:17;10.80;;;7.18;;
11743;SDS011;5929;51.906;7.674;2022-07-09T01:38:45;14.30;;;8.13;;
11743;SDS011;5929;51.906;7.674;2022-07-09T01:41:12;15.00;;;8.27;;
11743;SDS011;5929;51.906;7.674;2022-07-09T01:43:39;12.25;;;7.95;;
11743;SDS011;5929;51.906;7.674;2022-07-09T01:46:06;10.93;;;7.90;;
11743;SDS011;5929;51.906;7.674;2022-07-09T01:48:33;11.38;;;8.15;;
11743;SDS011;5929;51.906;7.674;2022-07-09T01:51:00;14.20;;;8.20;;
11743;SDS011;5929;51.906;7.674;2022-07-09T01:53:27;12.50;;;7.95;;
11743;SDS011;5929;51.906;7.674;2022-07-09T01:55:56;13.52;;;7.97;;
11743;SDS011;5929;51.906;7.674;2022-07-09T01:58:23;14.90;;;7.97;;
11743;SDS011;5929;51.906;7.674;2022-07-09T02:00:49;15.52;;;8.63;;
11743;SDS011;5929;51.906;7.674;2022-07-09T02:03:16;13.57;;;9.13;;
11743;SDS011;5929;51.906;7.674;2022-07-09T02:05:43;13.30;;;8.73;;
11743;SDS011;5929;51.906;7.674;2022-07-09T02:08:10;16.92;;;8.68;;
11743;SDS011;5929;51.906;7.674;2022-07-09T02:10:37;15.65;;;8.73;;
11743;SDS011;5929;51.906;7.674;2022-07-09T02:13:05;11.90;;;8.23;;
11743;SDS011;5929;51.906;7.674;2022-07-09T02:15:32;14.70;;;8.48;;
11743;SDS011;5929;51.906;7.674;2022-07-09T02:17:59;11.48;;;8.38;;
11743;SDS011;5929;51.906;7.674;2022-07-09T02:20:26;12.73;;;8.77;;
11743;SDS011;5929;51.906;7.674;2022-07-09T02:22:53;16.10;;;8.82;;
11743;SDS011;5929;51.906;7.674;2022-07-09T02:25:20;15.88;;;8.25;;
11743;SDS011;5929;51.906;7.674;2022-07-09T02:27:47;14.07;;;8.95;;
11743;SDS011;5929;51.906;7.674;2022-07-09T02:30:15;16.40;;;8.93;;
11743;SDS011;5929;51.906;7.674;2022-07-09T02:32:42;15.38;;;10.07;;
11743;SDS011;5929;51.906;7.674;2022-07-09T02:35:09;19.60;;;10.05;;
11743;SDS011;5929;51.906;7.674;2022-07-09T02:37:36;16.23;;;9.40;;
11743;SDS011;5929;51.906;7.674;2022-07-09T02:40:03;15.00;;;9.75;;
11743;SDS011;5929;51.906;7.674;2022-07-09T02:42:31;14.85;;;9.68;;
11743;SDS011;5929;51.906;7.674;2022-07-09T02:44:58;14.13;;;9.30;;
11743;SDS011;5929;51.906;7.674;2022-07-09T02:47:26;18.08;;;9.30;;
11743;SDS011;5929;51.906;7.674;2022-07-09T02:49:53;16.80;;;9.82;;
11743;SDS011;5929;51.906;7.674;2022-07-09T02:52:19;18.75;;;10.00;;
11743;SDS011;5929;51.906;7.674;2022-07-09T02:54:46;13.23;;;10.20;;
11743;SDS011;5929;51.906;7.674;2022-07-09T02:57:13;19.55;;;10.95;;
11743;SDS011;5929;51.906;7.674;2022-07-09T02:59:40;17.27;;;10.20;;
11743;SDS011;5929;51.906;7.674;2022-07-09T03:02:07;14.18;;;10.32;;
11743;SDS011;5929;51.906;7.674;2022-07-09T03:04:35;13.90;;;10.40;;
11743;SDS011;5929;51.906;7.674;2022-07-09T03:07:02;16.45;;;11.05;;
11743;SDS011;5929;51.906;7.674;2022-07-09T03:09:29;15.02;;;10.30;;
11743;SDS011;5929;51.906;7.674;2022-07-09T03:11:56;18.55;;;10.30;;
11743;SDS011;5929;51.906;7.674;2022-07-09T03:14:23;14.95;;;9.30;;
11743;SDS011;5929;51.906;7.674;2022-07-09T03:16:49;13.80;;;9.75;;
11743;SDS011;5929;51.906;7.674;2022-07-09T03:19:16;14.15;;;10.68;;
11743;SDS011;5929;51.906;7.674;2022-07-09T03:21:45;14.18;;;9.30;;
11743;SDS011;5929;51.906;7.674;2022-07-09T03:24:13;13.75;;;10.25;;
11743;SDS011;5929;51.906;7.674;2022-07-09T03:26:40;15.65;;;10.32;;
11743;SDS011;5929;51.906;7.674;2022-07-09T03:29:06;18.98;;;10.35;;
11743;SDS011;5929;51.906;7.674;2022-07-09T03:31:33;22.35;;;10.45;;
11743;SDS011;5929;51.906;7.674;2022-07-09T03:34:00;14.57;;;10.38;;
11743;SDS011;5929;51.906;7.674;2022-07-09T03:36:27;15.38;;;9.43;;
11743;SDS011;5929;51.906;7.674;2022-07-09T03:38:57;15.88;;;9.07;;
11743;SDS011;5929;51.906;7.674;2022-07-09T03:41:24;18.77;;;9.30;;
11743;SDS011;5929;51.906;7.674;2022-07-09T03:43:51;18.20;;;9.63;;
11743;SDS011;5929;51.906;7.674;2022-07-09T03:46:18;15.65;;;9.23;;
11743;SDS011;5929;51.906;7.674;2022-07-09T03:48:45;15.73;;;9.32;;
11743;SDS011;5929;51.906;7.674;2022-07-09T03:51:14;12.27;;;9.50;;
11743;SDS011;5929;51.906;7.674;2022-07-09T03:53:41;14.05;;;9.77;;
11743;SDS011;5929;51.906;7.674;2022-07-09T03:56:09;21.20;;;9.82;;
11743;SDS011;5929;51.906;7.674;2022-07-09T03:58:37;18.10;;;9.80;;
11743;SDS011;5929;51.906;7.674;2022-07-09T04:01:04;14.15;;;9.02;;
11743;SDS011;5929;51.906;7.674;2022-07-09T04:03:31;18.25;;;9.20;;
11743;SDS011;5929;51.906;7.674;2022-07-09T04:05:57;18.33;;;10.13;;
11743;SDS011;5929;51.906;7.674;2022-07-09T04:08:27;17.15;;;9.63;;
11743;SDS011;5929;51.906;7.674;2022-07-09T04:10:54;20.77;;;9.70;;
11743;SDS011;5929;51.906;7.674;2022-07-09T04:13:22;16.88;;;9.15;;
11743;SDS011;5929;51.906;7.674;2022-07-09T04:15:49;14.32;;;10.02;;
11743;SDS011;5929;51.906;7.674;2022-07-09T04:18:15;16.92;;;9.75;;
11743;SDS011;5929;51.906;7.674;2022-07-09T04:20:42;12.80;;;9.13;;
11743;SDS011;5929;51.906;7.674;2022-07-09T04:23:09;15.98;;;9.57;;
11743;SDS011;5929;51.906;7.674;2022-07-09T04:25:36;13.88;;;9.15;;
11743;SDS011;5929;51.906;7.674;2022-07-09T04:28:03;15.52;;;8.77;;
11743;SDS011;5929;51.906;7.674;2022-07-09T04:30:31;14.40;;;9.23;;
11743;SDS011;5929;51.906;7.674;2022-07-09T04:32:58;18.55;;;9.52;;
11743;SDS011;5929;51.906;7.674;2022-07-09T04:35:26;14.52;;;9.07;;
11743;SDS011;5929;51.906;7.674;2022-07-09T04:37:53;19.20;;;9.20;;
11743;SDS011;5929;51.906;7.674;2022-07-09T04:40:20;14.95;;;8.95;;
11743;SDS011;5929;51.906;7.674;2022-07-09T04:42:47;16.42;;;9.18;;
11743;SDS011;5929;51.906;7.674;2022-07-09T04:45:13;14.93;;;8.02;;
11743;SDS011;5929;51.906;7.674;2022-07-09T04:47:42;12.20;;;8.35;;
11743;SDS011;5929;51.906;7.674;2022-07-09T04:50:09;18.40;;;8.55;;
11743;SDS011;5929;51.906;7.674;2022-07-09T04:52:37;14.63;;;8.73;;
11743;SDS011;5929;51.906;7.674;2022-07-09T04:55:04;14.93;;;9.82;;
11743;SDS011;5929;51.906;7.674;2022-07-09T04:57:31;15.93;;;9.85;;
11743;SDS011;5929;51.906;7.674;2022-07-09T04:59:58;15.48;;;9.98;;
11743;SDS011;5929;51.906;7.674;2022-07-09T05:02:25;15.73;;;9.70;;
11743;SDS011;5929;51.906;7.674;2022-07-09T05:04:54;17.67;;;10.35;;
11743;SDS011;5929;51.906;7.674;2022-07-09T05:07:21;16.35;;;10.38;;
11743;SDS011;5929;51.906;7.674;2022-07-09T05:09:48;16.88;;;10.98;;
11743;SDS011;5929;51.906;7.674;2022-07-09T05:12:14;19.65;;;12.38;;
11743;SDS011;5929;51.906;7.674;2022-07-09T05:14:41;17.42;;;11.85;;
11743;SDS011;5929;51.906;7.674;2022-07-09T05:17:08;19.23;;;12.93;;
11743;SDS011;5929;51.906;7.674;2022-07-09T05:19:35;18.17;;;11.85;;
11743;SDS011;5929;51.906;7.674;2022-07-09T05:22:03;20.13;;;12.02;;
11743;SDS011;5929;51.906;7.674;2022-07-09T05:24:30;21.67;;;12.35;;
11743;SDS011;5929;51.906;7.674;2022-07-09T05:26:57;20.70;;;12.50;;
11743;SDS011;5929;51.906;7.674;2022-07-09T05:29:24;17.92;;;12.52;;
11743;SDS011;5929;51.906;7.674;2022-07-09T05:31:52;19.10;;;12.45;;
11743;SDS011;5929;51.906;7.674;2022-07-09T05:34:19;22.77;;;13.40;;
11743;SDS011;5929;51.906;7.674;2022-07-09T05:36:45;17.80;;;13.05;;
11743;SDS011;5929;51.906;7.674;2022-07-09T05:39:14;18.13;;;13.27;;
11743;SDS011;5929;51.906;7.674;2022-07-09T05:41:40;17.73;;;11.88;;
11743;SDS011;5929;51.906;7.674;2022-07-09T05:44:07;17.88;;;12.88;;
11743;SDS011;5929;51.906;7.674;2022-07-09T05:46:34;24.35;;;14.93;;
11743;SDS011;5929;51.906;7.674;2022-07-09T05:49:01;20.17;;;12.80;;
11743;SDS011;5929;51.906;7.674;2022-07-09T05:51:28;17.38;;;12.63;;
11743;SDS011;5929;51.906;7.674;2022-07-09T05:53:55;21.63;;;13.63;;
11743;SDS011;5929;51.906;7.674;2022-07-09T05:56:23;20.63;;;12.85;;
11743;SDS011;5929;51.906;7.674;2022-07-09T05:58:50;20.73;;;13.20;;
11743;SDS011;5929;51.906;7.674;2022-07-09T06:01:17;20.10;;;13.40;;
11743;SDS011;5929;51.906;7.674;2022-07-09T06:03:44;18.65;;;11.70;;
11743;SDS011;5929;51.906;7.674;2022-07-09T06:06:12;17.48;;;12.18;;
11743;SDS011;5929;51.906;7.674;2022-07-09T06:08:39;20.67;;;11.25;;
11743;SDS011;5929;51.906;7.674;2022-07-09T06:11:06;17.17;;;11.02;;
11743;SDS011;5929;51.906;7.674;2022-07-09T06:13:34;15.75;;;10.70;;
11743;SDS011;5929;51.906;7.674;2022-07-09T06:16:01;16.58;;;10.02;;
11743;SDS011;5929;51.906;7.674;2022-07-09T06:18:28;17.17;;;10.15;;
11743;SDS011;5929;51.906;7.674;2022-07-09T06:20:54;17.40;;;10.77;;
11743;SDS011;5929;51.906;7.674;2022-07-09T06:23:22;12.38;;;9.77;;
11743;SDS011;5929;51.906;7.674;2022-07-09T06:25:49;15.32;;;9.68;;
11743;SDS011;5929;51.906;7.674;2022-07-09T06:28:16;15.63;;;9.90;;
11743;SDS011;5929;51.906;7.674;2022-07-09T06:30:44;16.08;;;8.68;;
11743;SDS011;5929;51.906;7.674;2022-07-09T06:33:11;11.52;;;7.03;;
11743;SDS011;5929;51.906;7.674;2022-07-09T06:35:38;15.55;;;7.50;;
11743;SDS011;5929;51.906;7.674;2022-07-09T06:38:05;11.85;;;8.10;;
11743;SDS011;5929;51.906;7.674;2022-07-09T06:40:32;14.05;;;7.35;;
11743;SDS011;5929;51.906;7.674;2022-07-09T06:43:00;12.38;;;7.07;;
11743;SDS011;5929;51.906;7.674;2022-07-09T06:45:26;11.95;;;7.18;;
11743;SDS011;5929;51.906;7.674;2022-07-09T06:47:55;12.88;;;7.82;;
11743;SDS011;5929;51.906;7.674;2022-07-09T06:50:22;10.32;;;7.47;;
11743;SDS011;5929;51.906;7.674;2022-07-09T06:52:49;13.23;;;7.80;;
11743;SDS011;5929;51.906;7.674;2022-07-09T06:55:15;10.27;;;6.40;;
11743;SDS011;5929;51.906;7.674;2022-07-09T06:57:42;9.95;;;6.60;;
11743;SDS011;5929;51.906;7.674;2022-07-09T07:00:09;11.98;;;6.75;;
11743;SDS011;5929;51.906;7.674;2022-07-09T07:02:37;9.45;;;6.63;;
11743;SDS011;5929;51.906;7.674;2022-07-09T07:05:05;10.02;;;6.53;;
11743;SDS011;5929;51.906;7.674;2022-07-09T07:07:33;10.07;;;6.63;;
11743;SDS011;5929;51.906;7.674;2022-07-09T07:09:59;11.43;;;6.60;;
11743;SDS011;5929;51.906;7.674;2022-07-09T07:12:26;10.15;;;6.35;;
11743;SDS011;5929;51.906;7.674;2022-07-09T07:14:53;12.48;;;6.03;;
11743;SDS011;5929;51.906;7.674;2022-07-09T07:17:20;8.70;;;6.25;;
11743;SDS011;5929;51.906;7.674;2022-07-09T07:19:47;9.77;;;5.43;;
11743;SDS011;5929;51.906;7.674;2022-07-09T07:22:15;10.13;;;5.43;;
11743;SDS011;5929;51.906;7.674;2022-07-09T07:24:42;13.25;;;5.63;;
11743;SDS011;5929;51.906;7.674;2022-07-09T07:27:09;10.10;;;5.65;;
11743;SDS011;5929;51.906;7.674;2022-07-09T07:29:36;10.93;;;5.50;;
11743;SDS011;5929;51.906;7.674;2022-07-09T07:32:03;8.75;;;4.82;;
11743;SDS011;5929;51.906;7.674;2022-07-09T07:34:30;8.88;;;4.78;;
11743;SDS011;5929;51.906;7.674;2022-07-09T07:36:57;8.20;;;4.65;;
11743;SDS011;5929;51.906;7.674;2022-07-09T07:39:25;8.10;;;4.60;;
11743;SDS011;5929;51.906;7.674;2022-07-09T07:41:54;9.10;;;5.03;;
11743;SDS011;5929;51.906;7.674;2022-07-09T07:44:21;9.40;;;4.90;;
11743;SDS011;5929;51.906;7.674;2022-07-09T07:46:48;9.30;;;4.70;;
11743;SDS011;5929;51.906;7.674;2022-07-09T07:49:15;9.02;;;4.63;;
11743;SDS011;5929;51.906;7.674;2022-07-09T07:51:43;11.73;;;5.53;;
11743;SDS011;5929;51.906;7.674;2022-07-09T07:54:10;8.50;;;5.10;;
11743;SDS011;5929;51.906;7.674;2022-07-09T07:56:38;7.88;;;4.72;;
11743;SDS011;5929;51.906;7.674;2022-07-09T07:59:05;7.00;;;4.55;;
11743;SDS011;5929;51.906;7.674;2022-07-09T08:01:31;9.65;;;4.57;;
11743;SDS011;5929;51.906;7.674;2022-07-09T08:03:59;6.97;;;3.65;;
11743;SDS011;5929;51.906;7.674;2022-07-09T08:06:26;5.82;;;2.90;;
11743;SDS011;5929;51.906;7.674;2022-07-09T08:08:52;5.75;;;3.05;;
11743;SDS011;5929;51.906;7.674;2022-07-09T08:11:19;5.68;;;2.70;;
11743;SDS011;5929;51.906;7.674;2022-07-09T08:13:47;6.53;;;2.95;;
11743;SDS011;5929;51.906;7.674;2022-07-09T08:16:14;6.68;;;3.20;;
11743;SDS011;5929;51.906;7.674;2022-07-09T08:18:41;8.27;;;3.55;;
11743;SDS011;5929;51.906;7.674;2022-07-09T08:21:08;7.15;;;2.85;;
11743;SDS011;5929;51.906;7.674;2022-07-09T08:23:37;6.10;;;2.90;;
11743;SDS011;5929;51.906;7.674;2022-07-09T08:26:19;5.25;;;2.55;;
11743;SDS011;5929;51.906;7.674;2022-07-09T08:28:50;6.00;;;2.13;;
11743;SDS011;5929;51.906;7.674;2022-07-09T08:31:17;6.03;;;2.20;;
11743;SDS011;5929;51.906;7.674;2022-07-09T08:33:45;4.32;;;2.10;;
11743;SDS011;5929;51.906;7.674;2022-07-09T08:36:13;5.53;;;1.63;;
11743;SDS011;5929;51.906;7.674;2022-07-09T08:38:40;5.35;;;1.60;;
11743;SDS011;5929;51.906;7.674;2022-07-09T08:41:07;3.97;;;1.33;;
11743;SDS011;5929;51.906;7.674;2022-07-09T08:43:34;4.40;;;1.38;;
11743;SDS011;5929;51.906;7.674;2022-07-09T08:46:04;4.03;;;1.33;;
11743;SDS011;5929;51.906;7.674;2022-07-09T08:48:32;4.88;;;1.92;;
11743;SDS011;5929;51.906;7.674;2022-07-09T08:51:00;5.18;;;2.53;;
11743;SDS011;5929;51.906;7.674;2022-07-09T08:53:27;9.07;;;2.92;;
11743;SDS011;5929;51.906;7.674;2022-07-09T08:55:55;6.15;;;2.40;;
11743;SDS011;5929;51.906;7.674;2022-07-09T08:58:22;10.57;;;3.13;;
11743;SDS011;5929;51.906;7.674;2022-07-09T09:00:49;5.82;;;2.50;;
11743;SDS011;5929;51.906;7.674;2022-07-09T09:03:18;5.10;;;2.42;;
11743;SDS011;5929;51.906;7.674;2022-07-09T09:05:45;5.07;;;1.90;;
11743;SDS011;5929;51.906;7.674;2022-07-09T09:08:27;5.43;;;2.05;;
11743;SDS011;5929;51.906;7.674;2022-07-09T09:10:54;4.57;;;1.70;;
11743;SDS011;5929;51.906;7.674;2022-07-09T09:13:20;4.43;;;1.90;;
11743;SDS011;5929;51.906;7.674;2022-07-09T09:15:47;5.65;;;2.15;;
11743;SDS011;5929;51.906;7.674;2022-07-09T09:18:14;6.53;;;2.60;;
11743;SDS011;5929;51.906;7.674;2022-07-09T09:20:45;5.38;;;2.30;;
11743;SDS011;5929;51.906;7.674;2022-07-09T09:23:15;5.72;;;2.30;;
11743;SDS011;5929;51.906;7.674;2022-07-09T09:25:42;5.35;;;1.98;;
11743;SDS011;5929;51.906;7.674;2022-07-09T09:28:09;4.97;;;2.00;;
11743;SDS011;5929;51.906;7.674;2022-07-09T09:30:43;4.72;;;1.77;;
11743;SDS011;5929;51.906;7.674;2022-07-09T09:33:13;7.57;;;1.80;;
11743;SDS011;5929;51.906;7.674;2022-07-09T09:35:42;3.97;;;1.80;;
11743;SDS011;5929;51.906;7.674;2022-07-09T09:38:11;5.53;;;1.98;;
11743;SDS011;5929;51.906;7.674;2022-07-09T09:40:44;5.03;;;1.85;;
11743;SDS011;5929;51.906;7.674;2022-07-09T09:43:11;4.00;;;1.67;;
11743;SDS011;5929;51.906;7.674;2022-07-09T09:45:40;4.32;;;2.10;;
11743;SDS011;5929;51.906;7.674;2022-07-09T09:48:07;4.68;;;1.95;;
11743;SDS011;5929;51.906;7.674;2022-07-09T09:50:34;6.05;;;1.90;;
11743;SDS011;5929;51.906;7.674;2022-07-09T09:53:01;6.28;;;1.95;;
11743;SDS011;5929;51.906;7.674;2022-07-09T09:55:30;3.75;;;1.90;;
11743;SDS011;5929;51.906;7.674;2022-07-09T09:57:58;4.53;;;1.50;;
11743;SDS011;5929;51.906;7.674;2022-07-09T10:00:25;5.78;;;1.80;;
11743;SDS011;5929;51.906;7.674;2022-07-09T10:02:52;4.72;;;1.65;;
11743;SDS011;5929;51.906;7.674;2022-07-09T10:05:19;3.55;;;1.67;;
11743;SDS011;5929;51.906;7.674;2022-07-09T10:07:48;4.13;;;1.48;;
11743;SDS011;5929;51.906;7.674;2022-07-09T10:10:19;4.47;;;1.70;;
11743;SDS011;5929;51.906;7.674;2022-07-09T10:12:48;4.80;;;1.90;;
11743;SDS011;5929;51.906;7.674;2022-07-09T10:15:21;6.28;;;1.83;;
11743;SDS011;5929;51.906;7.674;2022-07-09T10:17:50;4.00;;;1.42;;
11743;SDS011;5929;51.906;7.674;2022-07-09T10:20:16;5.07;;;1.60;;
11743;SDS011;5929;51.906;7.674;2022-07-09T10:22:44;5.22;;;1.80;;
11743;SDS011;5929;51.906;7.674;2022-07-09T10:25:12;4.60;;;1.58;;
11743;SDS011;5929;51.906;7.674;2022-07-09T10:27:51;4.35;;;1.67;;
11743;SDS011;5929;51.906;7.674;2022-07-09T10:30:22;6.03;;;1.55;;
11743;SDS011;5929;51.906;7.674;2022-07-09T10:33:00;3.75;;;1.27;;
11743;SDS011;5929;51.906;7.674;2022-07-09T10:35:42;5.80;;;1.83;;
11743;SDS011;5929;51.906;7.674;2022-07-09T10:38:09;6.63;;;1.75;;
11743;SDS011;5929;51.906;7.674;2022-07-09T10:40:37;4.93;;;1.90;;
11743;SDS011;5929;51.906;7.674;2022-07-09T10:43:06;5.18;;;1.60;;
11743;SDS011;5929;51.906;7.674;2022-07-09T10:45:36;5.07;;;1.98;;
11743;SDS011;5929;51.906;7.674;2022-07-09T10:48:04;4.10;;;1.75;;
11743;SDS011;5929;51.906;7.674;2022-07-09T10:50:35;5.45;;;1.98;;
11743;SDS011;5929;51.906;7.674;2022-07-09T10:53:03;3.92;;;1.55;;
11743;SDS011;5929;51.906;7.674;2022-07-09T10:55:30;4.47;;;2.10;;
11743;SDS011;5929;51.906;7.674;2022-07-09T10:57:57;5.78;;;1.88;;
11743;SDS011;5929;51.906;7.674;2022-07-09T11:00:28;5.28;;;1.92;;
11743;SDS011;5929;51.906;7.674;2022-07-09T11:02:56;3.80;;;1.60;;
11743;SDS011;5929;51.906;7.674;2022-07-09T11:05:24;5.80;;;1.98;;
11743;SDS011;5929;51.906;7.674;2022-07-09T11:07:56;6.35;;;2.08;;
11743;SDS011;5929;51.906;7.674;2022-07-09T11:10:24;3.83;;;1.83;;
11743;SDS011;5929;51.906;7.674;2022-07-09T11:12:52;5.35;;;1.75;;
11743;SDS011;5929;51.906;7.674;2022-07-09T11:15:20;6.57;;;2.33;;
11743;SDS011;5929;51.906;7.674;2022-07-09T11:17:56;6.35;;;1.80;;
11743;SDS011;5929;51.906;7.674;2022-07-09T11:20:24;8.15;;;2.28;;
11743;SDS011;5929;51.906;7.674;2022-07-09T11:22:51;4.63;;;1.90;;
11743;SDS011;5929;51.906;7.674;2022-07-09T11:25:21;4.43;;;2.05;;
11743;SDS011;5929;51.906;7.674;2022-07-09T11:27:49;5.15;;;2.15;;
11743;SDS011;5929;51.906;7.674;2022-07-09T11:30:16;3.80;;;1.90;;
11743;SDS011;5929;51.906;7.674;2022-07-09T11:32:43;4.60;;;2.10;;
11743;SDS011;5929;51.906;7.674;2022-07-09T11:35:12;6.82;;;2.35;;
11743;SDS011;5929;51.906;7.674;2022-07-09T11:37:50;4.40;;;1.80;;
11743;SDS011;5929;51.906;7.674;2022-07-09T11:40:18;5.47;;;2.05;;
11743;SDS011;5929;51.906;7.674;2022-07-09T11:42:46;6.78;;;2.00;;
11743;SDS011;5929;51.906;7.674;2022-07-09T11:45:14;6.80;;;1.90;;
11743;SDS011;5929;51.906;7.674;2022-07-09T11:47:45;6.40;;;2.10;;
11743;SDS011;5929;51.906;7.674;2022-07-09T11:50:14;6.30;;;2.17;;
11743;SDS011;5929;51.906;7.674;2022-07-09T11:52:46;6.18;;;2.28;;
11743;SDS011;5929;51.906;7.674;2022-07-09T11:55:14;5.45;;;2.15;;
11743;SDS011;5929;51.906;7.674;2022-07-09T11:57:52;4.53;;;1.90;;
11743;SDS011;5929;51.906;7.674;2022-07-09T12:00:20;4.28;;;1.80;;
11743;SDS011;5929;51.906;7.674;2022-07-09T12:02:48;5.10;;;1.83;;
11743;SDS011;5929;51.906;7.674;2022-07-09T12:05:24;5.38;;;1.75;;
11743;SDS011;5929;51.906;7.674;2022-07-09T12:07:55;3.78;;;2.05;;
11743;SDS011;5929;51.906;7.674;2022-07-09T12:10:26;6.30;;;2.10;;
11743;SDS011;5929;51.906;7.674;2022-07-09T12:12:55;6.38;;;2.22;;
11743;SDS011;5929;51.906;7.674;2022-07-09T12:15:23;4.05;;;1.95;;
11743;SDS011;5929;51.906;7.674;2022-07-09T12:17:50;5.72;;;1.73;;
11743;SDS011;5929;51.906;7.674;2022-07-09T12:20:22;4.03;;;1.88;;
11743;SDS011;5929;51.906;7.674;2022-07-09T12:22:50;6.22;;;1.50;;
11743;SDS011;5929;51.906;7.674;2022-07-09T12:25:18;4.38;;;1.65;;
11743;SDS011;5929;51.906;7.674;2022-07-09T12:27:45;4.10;;;1.58;;
11743;SDS011;5929;51.906;7.674;2022-07-09T12:30:14;4.57;;;1.60;;
11743;SDS011;5929;51.906;7.674;2022-07-09T12:32:42;4.88;;;1.55;;
11743;SDS011;5929;51.906;7.674;2022-07-09T12:35:10;5.47;;;1.50;;
11743;SDS011;5929;51.906;7.674;2022-07-09T12:37:37;4.47;;;1.70;;
11743;SDS011;5929;51.906;7.674;2022-07-09T12:40:07;3.85;;;1.50;;
11743;SDS011;5929;51.906;7.674;2022-07-09T12:42:35;5.80;;;1.73;;
11743;SDS011;5929;51.906;7.674;2022-07-09T12:45:03;5.10;;;1.63;;
11743;SDS011;5929;51.906;7.674;2022-07-09T12:47:30;3.88;;;1.40;;
11743;SDS011;5929;51.906;7.674;2022-07-09T12:49:57;3.22;;;1.35;;
11743;SDS011;5929;51.906;7.674;2022-07-09T12:52:24;5.88;;;1.67;;
11743;SDS011;5929;51.906;7.674;2022-07-09T12:54:51;4.35;;;1.50;;
11743;SDS011;5929;51.906;7.674;2022-07-09T12:57:20;3.97;;;1.45;;
11743;SDS011;5929;51.906;7.674;2022-07-09T12:59:46;3.47;;;1.42;;
11743;SDS011;5929;51.906;7.674;2022-07-09T13:02:13;5.13;;;1.45;;
11743;SDS011;5929;51.906;7.674;2022-07-09T13:04:42;4.60;;;1.25;;
11743;SDS011;5929;51.906;7.674;2022-07-09T13:07:09;3.47;;;0.98;;
11743;SDS011;5929;51.906;7.674;2022-07-09T13:09:36;2.08;;;0.80;;
11743;SDS011;5929;51.906;7.674;2022-07-09T13:12:03;2.67;;;0.82;;
11743;SDS011;5929;51.906;7.674;2022-07-09T13:14:32;2.97;;;1.10;;
11743;SDS011;5929;51.906;7.674;2022-07-09T13:16:59;2.60;;;0.90;;
11743;SDS011;5929;51.906;7.674;2022-07-09T13:19:28;4.25;;;1.27;;
11743;SDS011;5929;51.906;7.674;2022-07-09T13:21:55;2.75;;;0.90;;
11743;SDS011;5929;51.906;7.674;2022-07-09T13:24:21;4.07;;;1.10;;
11743;SDS011;5929;51.906;7.674;2022-07-09T13:26:48;6.47;;;1.00;;
11743;SDS011;5929;51.906;7.674;2022-07-09T13:29:15;2.38;;;0.80;;
11743;SDS011;5929;51.906;7.674;2022-07-09T13:31:43;3.72;;;0.73;;
11743;SDS011;5929;51.906;7.674;2022-07-09T13:34:10;2.83;;;0.93;;
11743;SDS011;5929;51.906;7.674;2022-07-09T13:36:37;3.88;;;1.10;;
11743;SDS011;5929;51.906;7.674;2022-07-09T13:39:07;2.00;;;0.75;;
11743;SDS011;5929;51.906;7.674;2022-07-09T13:41:36;2.92;;;0.80;;
11743;SDS011;5929;51.906;7.674;2022-07-09T13:44:03;2.88;;;0.98;;
11743;SDS011;5929;51.906;7.674;2022-07-09T13:46:30;3.67;;;0.93;;
11743;SDS011;5929;51.906;7.674;2022-07-09T13:48:59;3.95;;;1.00;;
11743;SDS011;5929;51.906;7.674;2022-07-09T13:51:25;2.40;;;0.77;;
11743;SDS011;5929;51.906;7.674;2022-07-09T13:53:52;2.90;;;0.80;;
11743;SDS011;5929;51.906;7.674;2022-07-09T13:56:19;3.97;;;0.90;;
11743;SDS011;5929;51.906;7.674;2022-07-09T13:58:46;3.67;;;0.85;;
11743;SDS011;5929;51.906;7.674;2022-07-09T14:01:13;1.92;;;0.60;;
11743;SDS011;5929;51.906;7.674;2022-07-09T14:03:40;2.38;;;0.80;;
11743;SDS011;5929;51.906;7.674;2022-07-09T14:06:09;2.20;;;0.70;;
11743;SDS011;5929;51.906;7.674;2022-07-09T14:08:36;3.33;;;1.25;;
11743;SDS011;5929;51.906;7.674;2022-07-09T14:11:03;3.45;;;0.90;;
11743;SDS011;5929;51.906;7.674;2022-07-09T14:13:30;3.10;;;0.85;;
11743;SDS011;5929;51.906;7.674;2022-07-09T14:15:57;3.83;;;1.25;;
11743;SDS011;5929;51.906;7.674;2022-07-09T14:18:25;4.80;;;1.10;;
11743;SDS011;5929;51.906;7.674;2022-07-09T14:20:54;2.42;;;0.88;;
11743;SDS011;5929;51.906;7.674;2022-07-09T14:23:22;1.48;;;0.60;;
11743;SDS011;5929;51.906;7.674;2022-07-09T14:25:49;1.85;;;0.60;;
11743;SDS011;5929;51.906;7.674;2022-07-09T14:28:16;4.25;;;0.93;;
11743;SDS011;5929;51.906;7.674;2022-07-09T14:30:43;3.33;;;0.90;;
11743;SDS011;5929;51.906;7.674;2022-07-09T14:33:10;2.42;;;0.80;;
11743;SDS011;5929;51.906;7.674;2022-07-09T14:35:40;3.17;;;0.73;;
11743;SDS011;5929;51.906;7.674;2022-07-09T14:38:07;2.42;;;0.55;;
11743;SDS011;5929;51.906;7.674;2022-07-09T14:40:35;3.67;;;0.70;;
11743;SDS011;5929;51.906;7.674;2022-07-09T14:43:02;3.53;;;0.73;;
11743;SDS011;5929;51.906;7.674;2022-07-09T14:45:29;2.88;;;0.80;;
11743;SDS011;5929;51.906;7.674;2022-07-09T14:47:56;2.88;;;0.82;;
11743;SDS011;5929;51.906;7.674;2022-07-09T14:50:23;2.75;;;0.70;;
11743;SDS011;5929;51.906;7.674;2022-07-09T14:52:50;2.65;;;0.80;;
11743;SDS011;5929;51.906;7.674;2022-07-09T14:55:17;2.72;;;0.82;;